Time;durP1;ratioP1;P1;durP2;ratioP2;P2;SDS_P1;SDS_P2;PMS_P1;PMS_P2;Temp;Humidity;BMP_temperature;BMP_pressure;BME280_temperature;BME280_humidity;BME280_pressure;Samples;Min_cycle;Max_cycle;Signal;HPM_P1;HPM_P2
2022/07/21 00:02:01;;;;;;;1.00;1.00;;;25.00;61.10;;;;;;5076973;27;20047;-26
2022/07/21 00:04:26;;;;;;;0.70;0.70;;;25.00;61.30;;;;;;5078364;27;21816;-28
2022/07/21 00:06:52;;;;;;;0.80;0.80;;;25.00;61.40;;;;;;5079276;27;20072;-28
2022/07/21 00:09:18;;;;;;;0.80;0.80;;;25.00;61.30;;;;;;5079617;28;20040;-22
2022/07/21 00:11:43;;;;;;;0.80;0.77;;;25.00;61.20;;;;;;5079973;27;20036;-53
2022/07/21 00:14:09;;;;;;;1.15;1.08;;;25.00;61.40;;;;;;5080327;28;20105;-27
2022/07/21 00:16:36;;;;;;;0.80;0.80;;;25.00;61.30;;;;;;5079692;27;20036;-24
2022/07/21 00:19:01;;;;;;;0.70;0.63;;;25.00;61.50;;;;;;5079737;27;20036;-35
2022/07/21 00:21:27;;;;;;;0.60;0.60;;;24.90;61.30;;;;;;5080170;28;20051;-32
2022/07/21 00:23:53;;;;;;;1.10;0.90;;;24.90;61.40;;;;;;5079591;27;20059;-23
2022/07/21 00:26:18;;;;;;;1.85;1.00;;;25.00;61.20;;;;;;5083897;28;20048;-25
2022/07/21 00:28:44;;;;;;;1.02;1.02;;;25.00;61.20;;;;;;5082977;28;20096;-27
2022/07/21 00:31:09;;;;;;;0.73;0.73;;;25.00;61.20;;;;;;5085258;27;20116;-35
2022/07/21 00:33:35;;;;;;;0.80;0.80;;;25.00;61.10;;;;;;5084089;27;20067;-23
2022/07/21 00:36:01;;;;;;;0.80;0.80;;;25.00;61.30;;;;;;5081924;27;20082;-31
2022/07/21 00:38:26;;;;;;;0.80;0.80;;;25.00;61.20;;;;;;5082888;28;20044;-23
2022/07/21 00:40:53;;;;;;;0.80;0.80;;;24.90;61.90;;;;;;5080526;27;20055;-30
2022/07/21 00:43:19;;;;;;;0.90;0.90;;;24.90;62.00;;;;;;5082924;27;20109;-24
2022/07/21 00:45:44;;;;;;;0.75;0.75;;;24.90;61.10;;;;;;5081966;28;20467;-31
2022/07/21 00:48:10;;;;;;;0.98;0.95;;;24.90;61.10;;;;;;5082716;27;20052;-34
2022/07/21 00:50:35;;;;;;;0.80;0.80;;;24.90;61.90;;;;;;5083453;27;20552;-22
2022/07/21 00:53:01;;;;;;;0.98;0.98;;;24.90;61.30;;;;;;5085300;27;20043;-27
2022/07/21 00:55:27;;;;;;;0.85;0.85;;;24.90;61.10;;;;;;5084687;27;20135;-23
2022/07/21 00:57:52;;;;;;;0.82;0.82;;;24.80;61.10;;;;;;5085251;28;20421;-25
2022/07/21 01:00:28;;;;;;;0.65;0.65;;;24.80;61.20;;;;;;5083178;27;20075;-23
2022/07/21 01:02:54;;;;;;;0.85;0.85;;;24.90;61.30;;;;;;5082434;28;20678;-40
2022/07/21 01:05:20;;;;;;;0.85;0.85;;;24.90;61.10;;;;;;5082694;27;20051;-34
2022/07/21 01:07:47;;;;;;;0.90;0.90;;;24.90;61.10;;;;;;5077950;28;20074;-29
2022/07/21 01:10:13;;;;;;;0.80;0.80;;;24.90;61.10;;;;;;5084085;27;20052;-34
2022/07/21 01:12:38;;;;;;;0.70;0.68;;;24.80;61.30;;;;;;5082257;28;20048;-35
2022/07/21 01:15:05;;;;;;;0.73;0.73;;;24.90;61.30;;;;;;5083066;27;20170;-24
2022/07/21 01:17:31;;;;;;;0.80;0.80;;;24.90;61.10;;;;;;5083674;28;20514;-26
2022/07/21 01:19:56;;;;;;;0.90;0.90;;;24.90;61.40;;;;;;5082943;27;20071;-21
2022/07/21 01:22:22;;;;;;;0.98;0.98;;;24.90;61.30;;;;;;5080780;28;20044;-30
2022/07/21 01:24:48;;;;;;;0.73;0.73;;;24.90;61.20;;;;;;5083220;27;20093;-22
2022/07/21 01:27:13;;;;;;;0.88;0.88;;;24.90;61.10;;;;;;5080676;27;20494;-24
2022/07/21 01:29:39;;;;;;;0.90;0.90;;;24.90;61.20;;;;;;5083195;28;20159;-25
2022/07/21 01:32:04;;;;;;;0.75;0.75;;;24.80;60.90;;;;;;5083091;27;20048;-44
2022/07/21 01:34:30;;;;;;;1.02;1.02;;;24.90;61.10;;;;;;5082722;28;20583;-32
2022/07/21 01:36:56;;;;;;;0.65;0.65;;;24.90;61.10;;;;;;5081879;27;20063;-28
2022/07/21 01:42:05;;;;;;;;;;;24.90;61.00;;;;;;5080707;27;20047;-31
2022/07/21 01:44:31;;;;;;;0.60;0.60;;;24.90;60.90;;;;;;5081955;27;19916;-26
2022/07/21 01:46:56;;;;;;;0.68;0.68;;;24.90;60.90;;;;;;5083165;27;20041;-27
2022/07/21 01:49:22;;;;;;;0.70;0.70;;;24.90;60.90;;;;;;5080739;27;20055;-23
2022/07/21 01:51:48;;;;;;;0.80;0.80;;;24.90;60.90;;;;;;5084813;28;20044;-28
2022/07/21 01:54:14;;;;;;;0.60;0.60;;;24.80;61.10;;;;;;5081974;27;20751;-21
2022/07/21 01:56:40;;;;;;;0.65;0.65;;;24.90;60.80;;;;;;5085414;27;20081;-27
2022/07/21 01:59:06;;;;;;;0.70;0.70;;;24.80;60.80;;;;;;5080673;27;20067;-32
2022/07/21 02:01:32;;;;;;;0.60;0.60;;;24.80;60.90;;;;;;5082673;27;20051;-22
2022/07/21 02:03:59;;;;;;;0.80;0.80;;;24.80;61.80;;;;;;5082839;27;20048;-21
2022/07/21 02:06:24;;;;;;;1.00;1.00;;;24.80;61.00;;;;;;5082754;27;20047;-36
2022/07/21 02:08:50;;;;;;;0.85;0.85;;;24.80;61.00;;;;;;5081815;28;20410;-28
2022/07/21 02:11:16;;;;;;;1.08;1.08;;;24.80;60.90;;;;;;5083098;28;20093;-33
2022/07/21 02:13:42;;;;;;;0.80;0.80;;;24.80;61.00;;;;;;5083935;28;20047;-38
2022/07/21 02:16:07;;;;;;;0.85;0.85;;;24.80;61.10;;;;;;5084247;27;20043;-28
2022/07/21 02:18:33;;;;;;;0.73;0.73;;;24.80;61.00;;;;;;5082336;27;20467;-38
2022/07/21 02:20:59;;;;;;;0.73;0.73;;;24.80;61.00;;;;;;5082396;27;20032;-32
2022/07/21 02:23:24;;;;;;;0.93;0.70;;;24.80;61.00;;;;;;5083337;27;20537;-37
2022/07/21 02:25:51;;;;;;;1.00;0.90;;;24.80;61.00;;;;;;5080869;28;20037;-25
2022/07/21 02:28:17;;;;;;;0.80;0.80;;;24.80;61.00;;;;;;5083483;27;20131;-28
2022/07/21 02:30:43;;;;;;;0.70;0.70;;;24.80;61.10;;;;;;5082057;27;20139;-35
2022/07/21 02:33:09;;;;;;;0.80;0.80;;;24.80;61.20;;;;;;5080517;28;20032;-21
2022/07/21 02:35:34;;;;;;;0.98;0.98;;;24.70;60.80;;;;;;5082175;28;20036;-32
2022/07/21 02:38:00;;;;;;;0.82;0.82;;;24.70;61.20;;;;;;5082554;27;20036;-25
2022/07/21 02:40:25;;;;;;;0.90;0.90;;;24.70;61.10;;;;;;5082425;27;20032;-31
2022/07/21 02:42:51;;;;;;;0.70;0.70;;;24.80;60.90;;;;;;5084172;27;20071;-23
2022/07/21 02:45:17;;;;;;;0.77;0.77;;;24.70;61.10;;;;;;5080309;27;20130;-27
2022/07/21 02:47:48;;;;;;;0.70;0.70;;;24.70;61.10;;;;;;5085265;27;20422;-25
2022/07/21 02:50:15;;;;;;;0.60;0.60;;;24.70;61.10;;;;;;5083892;27;20055;-39
2022/07/21 02:52:40;;;;;;;0.93;0.63;;;24.70;61.00;;;;;;5086701;28;20083;-27
2022/07/21 02:55:06;;;;;;;0.40;0.40;;;24.70;61.10;;;;;;5084037;27;20076;-23
2022/07/21 02:57:32;;;;;;;0.80;0.80;;;24.70;60.80;;;;;;5083803;27;20100;-23
2022/07/21 02:59:58;;;;;;;0.73;0.70;;;24.70;60.90;;;;;;5083489;27;20036;-33
2022/07/21 03:02:23;;;;;;;0.60;0.60;;;24.70;60.80;;;;;;5084494;27;20040;-29
2022/07/21 03:04:49;;;;;;;0.80;0.80;;;24.70;60.90;;;;;;5085745;27;20064;-31
2022/07/21 03:07:14;;;;;;;0.88;0.88;;;24.70;60.90;;;;;;5085613;27;20044;-28
2022/07/21 03:09:40;;;;;;;0.47;0.47;;;24.70;61.10;;;;;;5084469;28;20044;-28
2022/07/21 03:12:07;;;;;;;0.75;0.75;;;24.70;60.90;;;;;;5083329;27;20109;-40
2022/07/21 03:14:32;;;;;;;0.70;0.70;;;24.70;60.70;;;;;;5084415;27;20110;-38
2022/07/21 03:16:58;;;;;;;0.60;0.60;;;24.70;60.90;;;;;;5083987;27;20531;-22
2022/07/21 03:19:23;;;;;;;0.60;0.60;;;24.70;61.00;;;;;;5084552;28;20040;-21
2022/07/21 03:21:49;;;;;;;0.75;0.70;;;24.70;61.10;;;;;;5084437;28;20569;-21
2022/07/21 03:24:14;;;;;;;0.80;0.80;;;24.70;61.90;;;;;;5082457;27;20055;-26
2022/07/21 03:26:40;;;;;;;0.80;0.80;;;24.70;61.10;;;;;;5084605;27;20065;-33
2022/07/21 03:29:06;;;;;;;0.77;0.77;;;24.70;60.90;;;;;;5083898;27;20036;-27
2022/07/21 03:31:31;;;;;;;0.70;0.70;;;24.70;61.00;;;;;;5085196;28;20383;-32
2022/07/21 03:33:57;;;;;;;0.52;0.52;;;24.70;60.80;;;;;;5085590;27;20052;-25
2022/07/21 03:36:22;;;;;;;0.60;0.60;;;24.70;61.00;;;;;;5084759;27;20039;-30
2022/07/21 03:38:50;;;;;;;0.73;0.73;;;24.70;60.80;;;;;;5083931;27;20422;-29
2022/07/21 03:41:16;;;;;;;0.60;0.60;;;24.70;60.80;;;;;;5083266;27;20486;-26
2022/07/21 03:43:41;;;;;;;0.80;0.80;;;24.70;61.00;;;;;;5084443;28;20052;-23
2022/07/21 03:46:07;;;;;;;0.70;0.70;;;24.70;61.00;;;;;;5085014;27;20032;-38
2022/07/21 03:48:33;;;;;;;0.60;0.60;;;24.60;61.00;;;;;;5084567;27;20074;-31
2022/07/21 03:50:58;;;;;;;0.40;0.40;;;24.70;60.90;;;;;;5083217;27;20178;-30
2022/07/21 03:53:24;;;;;;;0.60;0.60;;;24.70;60.70;;;;;;5085161;28;20036;-30
2022/07/21 03:55:49;;;;;;;0.55;0.55;;;24.70;60.80;;;;;;5085595;27;20032;-22
2022/07/21 03:58:15;;;;;;;0.60;0.60;;;24.70;60.90;;;;;;5082784;27;20040;-26
2022/07/21 04:00:42;;;;;;;0.63;0.63;;;24.60;60.90;;;;;;5084129;27;20391;-33
2022/07/21 04:03:07;;;;;;;0.68;0.68;;;24.70;60.90;;;;;;5084345;27;20032;-27
2022/07/21 04:05:33;;;;;;;0.70;0.60;;;24.60;60.80;;;;;;5083679;28;20525;-24
2022/07/21 04:07:59;;;;;;;0.55;0.55;;;24.60;60.90;;;;;;5083554;27;20086;-23
2022/07/21 04:10:29;;;;;;;0.55;0.55;;;24.60;61.70;;;;;;5084790;27;20109;-27
2022/07/21 04:12:55;;;;;;;0.57;0.57;;;24.60;60.90;;;;;;5083648;27;20075;-28
2022/07/21 04:15:21;;;;;;;0.60;0.60;;;24.70;60.90;;;;;;5082656;27;20048;-24
2022/07/21 04:17:48;;;;;;;0.50;0.50;;;24.70;60.80;;;;;;5083302;28;20032;-31
2022/07/21 04:20:14;;;;;;;0.93;0.50;;;24.70;60.70;;;;;;5082332;27;20101;-25
2022/07/21 04:22:40;;;;;;;0.68;0.68;;;24.60;60.90;;;;;;5084043;28;20052;-23
2022/07/21 04:25:06;;;;;;;0.70;0.70;;;24.60;60.90;;;;;;5083669;27;20072;-25
2022/07/21 04:27:32;;;;;;;0.50;0.50;;;24.70;60.90;;;;;;5083979;27;20074;-27
2022/07/21 04:29:57;;;;;;;0.70;0.70;;;24.60;60.80;;;;;;5083146;27;20043;-26
2022/07/21 04:32:23;;;;;;;0.50;0.50;;;24.60;60.90;;;;;;5084126;28;20109;-28
2022/07/21 04:34:48;;;;;;;0.47;0.47;;;24.60;61.00;;;;;;5085268;27;20032;-32
2022/07/21 04:37:14;;;;;;;0.50;0.50;;;24.60;60.90;;;;;;5085198;27;20040;-33
2022/07/21 04:39:39;;;;;;;0.70;0.70;;;24.60;61.30;;;;;;5082580;28;20289;-26
2022/07/21 04:42:05;;;;;;;1.58;1.48;;;24.60;60.90;;;;;;5082141;28;20520;-29
2022/07/21 04:44:31;;;;;;;1.38;1.23;;;24.10;60.50;;;;;;5071967;28;20133;-35
2022/07/21 04:46:57;;;;;;;2.22;1.60;;;23.70;60.30;;;;;;5076479;27;20044;-30
2022/07/21 04:49:22;;;;;;;3.53;1.60;;;23.50;60.90;;;;;;5075186;27;20051;-24
2022/07/21 04:51:48;;;;;;;1.52;1.33;;;23.30;61.10;;;;;;5079648;27;20050;-27
2022/07/21 04:54:14;;;;;;;1.30;1.20;;;23.20;61.30;;;;;;5073916;27;20048;-26
2022/07/21 04:56:41;;;;;;;1.50;1.40;;;23.10;61.70;;;;;;5075433;27;20040;-22
2022/07/21 04:59:06;;;;;;;2.35;1.35;;;23.00;62.00;;;;;;5073628;27;20040;-25
2022/07/21 05:01:32;;;;;;;1.55;1.40;;;22.90;62.00;;;;;;5074636;28;20071;-23
2022/07/21 05:03:57;;;;;;;1.25;1.15;;;22.90;61.90;;;;;;5075439;27;20036;-29
2022/07/21 05:06:23;;;;;;;1.67;1.52;;;22.80;62.20;;;;;;5075482;27;20201;-27
2022/07/21 05:08:48;;;;;;;1.90;1.70;;;22.80;62.40;;;;;;5075967;27;20481;-25
2022/07/21 05:11:14;;;;;;;1.88;1.48;;;22.70;62.60;;;;;;5079555;27;20056;-22
2022/07/21 05:13:40;;;;;;;1.90;1.40;;;22.60;62.80;;;;;;5079513;27;20617;-23
2022/07/21 05:16:05;;;;;;;2.05;1.30;;;22.60;63.00;;;;;;5075670;28;20033;-23
2022/07/21 05:18:31;;;;;;;1.55;1.40;;;22.50;63.20;;;;;;5073749;28;20047;-23
2022/07/21 05:20:56;;;;;;;1.63;1.42;;;22.40;63.50;;;;;;5071491;28;20135;-37
2022/07/21 05:23:22;;;;;;;3.05;1.65;;;22.40;63.60;;;;;;5080931;27;20056;-23
2022/07/21 05:25:47;;;;;;;1.60;1.50;;;22.30;63.80;;;;;;5066942;27;20047;-30
2022/07/21 05:28:13;;;;;;;1.48;1.38;;;22.20;64.00;;;;;;5074649;28;20045;-22
2022/07/21 05:30:39;;;;;;;3.45;1.52;;;22.20;64.20;;;;;;5070952;27;20569;-23
2022/07/21 05:33:04;;;;;;;2.28;1.75;;;22.10;64.40;;;;;;5072820;27;20070;-26
2022/07/21 05:35:30;;;;;;;2.60;1.40;;;21.90;65.50;;;;;;5070375;28;20040;-24
2022/07/21 05:37:56;;;;;;;1.75;1.13;;;22.00;64.90;;;;;;5076269;27;20045;-24
2022/07/21 05:40:22;;;;;;;2.03;1.60;;;22.00;64.90;;;;;;5072894;27;20047;-23
2022/07/21 05:42:47;;;;;;;2.40;1.65;;;22.00;65.10;;;;;;4724719;28;9999806;-25
2022/07/21 05:45:13;;;;;;;2.30;1.65;;;22.00;65.30;;;;;;5063984;27;20040;-25
2022/07/21 05:47:39;;;;;;;1.92;1.65;;;21.90;65.50;;;;;;5077484;27;20036;-29
2022/07/21 05:50:05;;;;;;;1.67;1.58;;;22.00;65.20;;;;;;5071125;27;20037;-31
2022/07/21 05:52:30;;;;;;;2.33;1.70;;;22.00;65.00;;;;;;5072831;28;20048;-24
2022/07/21 05:54:56;;;;;;;1.60;1.48;;;22.00;65.50;;;;;;5076082;27;20165;-26
2022/07/21 05:57:21;;;;;;;1.67;1.50;;;21.90;65.70;;;;;;5068080;28;22414;-24
2022/07/21 05:59:47;;;;;;;1.92;1.20;;;21.80;65.70;;;;;;5068611;28;20098;-24
2022/07/21 06:02:13;;;;;;;1.20;1.10;;;21.90;65.90;;;;;;5069355;27;20059;-30
2022/07/21 06:04:39;;;;;;;1.95;1.00;;;22.00;65.40;;;;;;5072206;28;20056;-31
2022/07/21 06:07:04;;;;;;;1.15;1.02;;;22.20;64.90;;;;;;5073164;27;20522;-37
2022/07/21 06:09:30;;;;;;;1.52;1.00;;;22.30;65.20;;;;;;5069507;28;20066;-30
2022/07/21 06:11:56;;;;;;;1.73;0.85;;;22.50;64.00;;;;;;5070337;28;20595;-26
2022/07/21 06:14:21;;;;;;;0.88;0.88;;;22.50;63.70;;;;;;5067554;28;20067;-33
2022/07/21 06:16:47;;;;;;;2.30;1.10;;;22.60;63.50;;;;;;5068856;28;20055;-27
2022/07/21 06:19:13;;;;;;;1.20;1.10;;;22.70;63.20;;;;;;5075026;27;20051;-45
2022/07/21 06:21:40;;;;;;;1.77;1.23;;;22.80;63.00;;;;;;5071142;28;20443;-43
2022/07/21 06:24:06;;;;;;;1.25;1.15;;;22.80;63.10;;;;;;5069458;27;20063;-28
2022/07/21 06:26:32;;;;;;;1.35;0.90;;;22.80;62.90;;;;;;5078874;27;20064;-36
2022/07/21 06:28:57;;;;;;;0.85;0.85;;;22.90;62.90;;;;;;5078601;27;20148;-29
2022/07/21 06:31:23;;;;;;;1.35;1.02;;;22.80;63.00;;;;;;5077846;27;20036;-23
2022/07/21 06:33:49;;;;;;;1.05;1.00;;;22.90;62.90;;;;;;5075014;27;20400;-31
2022/07/21 06:36:14;;;;;;;0.90;0.90;;;22.90;62.80;;;;;;5074852;27;20028;-18
2022/07/21 06:38:40;;;;;;;1.65;1.00;;;22.90;62.80;;;;;;5077323;28;20052;-19
2022/07/21 06:41:06;;;;;;;1.15;1.00;;;22.90;62.60;;;;;;5075664;27;20497;-26
2022/07/21 06:43:32;;;;;;;1.20;1.10;;;22.90;62.60;;;;;;5076025;27;20495;-18
2022/07/21 06:45:58;;;;;;;1.10;1.00;;;22.90;62.60;;;;;;5075650;27;20044;-19
2022/07/21 06:48:24;;;;;;;1.60;0.90;;;22.90;62.50;;;;;;5076744;28;20051;-19
2022/07/21 06:50:50;;;;;;;1.20;1.10;;;23.00;62.50;;;;;;5075770;27;20047;-19
2022/07/21 06:53:15;;;;;;;1.25;0.90;;;23.00;62.50;;;;;;5076338;27;20089;-19
2022/07/21 06:55:41;;;;;;;0.90;0.90;;;23.10;62.30;;;;;;5072450;27;20048;-22
2022/07/21 06:58:11;;;;;;;1.05;0.98;;;23.10;62.20;;;;;;5086126;27;20075;-18
2022/07/21 07:00:37;;;;;;;1.60;0.98;;;23.10;62.20;;;;;;5082098;28;20040;-21
2022/07/21 07:03:03;;;;;;;1.10;1.00;;;23.10;62.20;;;;;;5084109;27;20501;-19
2022/07/21 07:05:30;;;;;;;0.88;0.73;;;23.10;62.20;;;;;;5082649;27;20040;-20
2022/07/21 07:07:56;;;;;;;1.02;0.90;;;23.10;62.10;;;;;;5084339;27;20068;-19
2022/07/21 07:10:21;;;;;;;0.80;0.80;;;23.10;62.00;;;;;;5085730;28;20133;-18
2022/07/21 07:12:47;;;;;;;1.17;0.80;;;23.10;62.00;;;;;;5084788;27;20494;-20
2022/07/21 07:15:13;;;;;;;2.50;1.30;;;23.10;62.00;;;;;;5083194;27;20051;-19
2022/07/21 07:17:38;;;;;;;0.60;0.60;;;23.20;62.10;;;;;;5083794;27;20596;-19
2022/07/21 07:20:06;;;;;;;1.00;0.90;;;23.20;62.00;;;;;;5083697;27;20032;-30
2022/07/21 07:22:32;;;;;;;1.13;1.10;;;23.20;61.90;;;;;;5083302;28;20112;-26
2022/07/21 07:24:58;;;;;;;0.90;0.90;;;23.20;61.90;;;;;;5085167;28;20503;-35
2022/07/21 07:27:23;;;;;;;0.80;0.80;;;23.20;61.90;;;;;;5084705;27;20032;-25
2022/07/21 07:29:49;;;;;;;0.70;0.70;;;23.20;61.80;;;;;;5082843;27;20033;-19
2022/07/21 07:32:14;;;;;;;1.92;0.95;;;23.30;61.70;;;;;;5083867;27;20067;-19
2022/07/21 07:34:40;;;;;;;0.80;0.80;;;23.30;61.70;;;;;;5084033;27;20052;-19
2022/07/21 07:37:05;;;;;;;0.55;0.55;;;23.30;61.70;;;;;;5086137;28;20035;-19
2022/07/21 07:39:31;;;;;;;1.55;0.98;;;23.30;61.60;;;;;;5082818;27;20052;-19
2022/07/21 07:41:57;;;;;;;0.73;0.73;;;23.30;61.60;;;;;;5084905;27;20077;-19
2022/07/21 07:44:22;;;;;;;1.20;1.10;;;23.30;61.50;;;;;;5083809;27;20047;-21
2022/07/21 07:46:48;;;;;;;0.80;0.70;;;23.30;62.20;;;;;;5083482;27;20043;-23
2022/07/21 07:49:14;;;;;;;0.80;0.80;;;23.40;61.40;;;;;;5085760;28;20047;-25
2022/07/21 07:51:39;;;;;;;1.55;0.75;;;23.40;61.30;;;;;;5082496;28;20040;-24
2022/07/21 07:54:05;;;;;;;0.85;0.85;;;23.40;61.20;;;;;;5084848;27;20529;-19
2022/07/21 07:56:31;;;;;;;1.13;0.75;;;23.40;61.20;;;;;;5083940;27;20040;-29
2022/07/21 07:58:57;;;;;;;0.70;0.70;;;23.50;61.30;;;;;;5084255;27;20115;-21
2022/07/21 08:01:22;;;;;;;0.70;0.70;;;23.40;61.10;;;;;;5085193;27;20040;-22
2022/07/21 08:03:48;;;;;;;0.50;0.50;;;23.50;61.30;;;;;;5086363;28;20039;-19
2022/07/21 08:06:13;;;;;;;0.50;0.50;;;23.50;61.30;;;;;;5081928;27;20044;-31
2022/07/21 08:08:39;;;;;;;0.57;0.50;;;23.40;61.20;;;;;;5083812;28;20403;-27
2022/07/21 08:11:05;;;;;;;0.60;0.60;;;23.50;61.20;;;;;;5084172;28;20110;-19
2022/07/21 08:13:30;;;;;;;0.73;0.65;;;23.50;61.30;;;;;;5084101;27;20048;-20
2022/07/21 08:15:56;;;;;;;0.73;0.73;;;23.50;61.20;;;;;;5084719;27;20135;-19
2022/07/21 08:18:21;;;;;;;1.33;0.75;;;23.50;61.20;;;;;;5082041;27;20632;-22
2022/07/21 08:20:47;;;;;;;0.70;0.50;;;23.50;61.20;;;;;;5084407;27;20097;-22
2022/07/21 08:23:13;;;;;;;0.60;0.50;;;23.50;62.00;;;;;;5083111;27;20506;-23
2022/07/21 08:25:39;;;;;;;0.70;0.70;;;23.50;61.80;;;;;;5084311;27;20080;-23
2022/07/21 08:28:05;;;;;;;0.60;0.55;;;23.60;61.00;;;;;;5085022;28;20043;-20
2022/07/21 08:30:30;;;;;;;0.57;0.57;;;23.60;61.70;;;;;;5084180;27;20032;-22
2022/07/21 08:32:57;;;;;;;0.80;0.80;;;23.60;60.80;;;;;;5084210;27;20047;-24
2022/07/21 08:35:22;;;;;;;0.70;0.70;;;23.60;60.80;;;;;;5084065;27;20036;-19
2022/07/21 08:37:59;;;;;;;0.73;0.73;;;23.60;60.70;;;;;;5083416;28;20494;-21
2022/07/21 08:40:25;;;;;;;0.60;0.60;;;23.60;60.70;;;;;;5083249;27;20131;-26
2022/07/21 08:42:51;;;;;;;1.33;1.15;;;23.70;60.70;;;;;;5084268;28;20406;-19
2022/07/21 08:45:16;;;;;;;0.85;0.77;;;23.60;60.60;;;;;;5086152;27;20044;-24
2022/07/21 08:47:42;;;;;;;0.70;0.70;;;23.70;60.60;;;;;;5089079;28;20044;-19
2022/07/21 08:50:08;;;;;;;0.80;0.60;;;23.70;60.60;;;;;;5087604;28;20032;-25
2022/07/21 08:52:34;;;;;;;0.70;0.70;;;23.70;61.10;;;;;;5087058;27;20387;-21
2022/07/21 08:54:59;;;;;;;0.50;0.50;;;23.70;60.60;;;;;;5089261;27;20039;-22
2022/07/21 08:57:25;;;;;;;0.50;0.47;;;23.70;60.60;;;;;;5086068;27;20044;-23
2022/07/21 08:59:51;;;;;;;0.60;0.60;;;23.70;60.60;;;;;;5087543;27;20126;-19
2022/07/21 09:02:33;;;;;;;0.65;0.65;;;23.70;60.50;;;;;;5086128;27;20047;-24
2022/07/21 09:04:59;;;;;;;0.75;0.75;;;23.70;60.60;;;;;;5086355;28;20078;-19
2022/07/21 09:07:25;;;;;;;0.80;0.80;;;23.70;60.60;;;;;;5087820;28;20040;-22
2022/07/21 09:10:00;;;;;;;0.68;0.68;;;23.70;60.60;;;;;;5088333;27;20101;-30
2022/07/21 09:12:26;;;;;;;0.60;0.60;;;23.70;60.60;;;;;;5084222;27;20119;-19
2022/07/21 09:14:52;;;;;;;0.73;0.73;;;23.70;60.60;;;;;;5087037;27;20131;-24
2022/07/21 09:17:18;;;;;;;0.60;0.60;;;23.80;60.60;;;;;;5086626;27;20054;-27
2022/07/21 09:19:45;;;;;;;0.65;0.65;;;23.80;60.60;;;;;;5087819;27;20060;-25
2022/07/21 09:22:19;;;;;;;0.70;0.70;;;23.80;60.60;;;;;;5089141;28;20056;-24
2022/07/21 09:24:51;;;;;;;;;;;23.80;60.60;;;;;;5087591;27;20054;-26
2022/07/21 09:27:18;;;;;;;0.68;0.52;;;23.70;60.50;;;;;;5083256;27;20217;-28
2022/07/21 09:29:48;;;;;;;0.60;0.60;;;23.80;60.50;;;;;;5088073;27;20592;-27
2022/07/21 09:32:34;;;;;;;0.60;0.60;;;23.80;60.60;;;;;;5086940;27;20056;-20
2022/07/21 09:35:04;;;;;;;0.68;0.68;;;23.80;60.60;;;;;;5085090;28;20059;-36
2022/07/21 09:37:30;;;;;;;0.55;0.50;;;23.80;60.60;;;;;;5086659;27;20044;-19
2022/07/21 09:39:58;;;;;;;0.60;0.60;;;23.80;61.30;;;;;;5087908;28;20391;-22
2022/07/21 09:42:28;;;;;;;0.40;0.40;;;23.80;60.50;;;;;;5085550;27;20036;-24
2022/07/21 09:45:03;;;;;;;0.50;0.50;;;23.80;60.50;;;;;;5087312;27;20569;-20
2022/07/21 09:47:30;;;;;;;0.80;0.80;;;23.80;60.50;;;;;;5086126;28;20047;-19
2022/07/21 09:49:56;;;;;;;0.70;0.70;;;23.80;60.50;;;;;;5086069;27;20039;-21
2022/07/21 09:52:22;;;;;;;0.70;0.70;;;23.80;60.50;;;;;;5087087;27;20452;-21
2022/07/21 09:54:48;;;;;;;0.60;0.60;;;23.80;60.50;;;;;;5085746;28;20039;-22
2022/07/21 09:57:15;;;;;;;0.60;0.60;;;23.80;60.50;;;;;;5084824;27;20048;-28
2022/07/21 09:59:43;;;;;;;0.82;0.65;;;23.80;60.50;;;;;;5084817;27;20060;-23
2022/07/21 10:02:10;;;;;;;0.52;0.40;;;23.80;60.40;;;;;;5085233;28;20051;-20
2022/07/21 10:04:36;;;;;;;0.90;0.77;;;23.80;60.30;;;;;;5084680;27;20055;-20
2022/07/21 10:07:01;;;;;;;0.60;0.50;;;23.80;60.30;;;;;;5085734;28;20032;-26
2022/07/21 10:09:27;;;;;;;0.50;0.50;;;23.90;60.40;;;;;;5085510;27;20115;-29
2022/07/21 10:11:53;;;;;;;0.60;0.60;;;23.90;60.40;;;;;;5085401;28;20185;-22
2022/07/21 10:14:18;;;;;;;0.70;0.70;;;23.90;60.30;;;;;;5084423;27;20048;-33
2022/07/21 10:16:44;;;;;;;0.50;0.50;;;23.90;60.30;;;;;;5085187;28;20048;-25
2022/07/21 10:19:31;;;;;;;0.47;0.47;;;23.90;60.40;;;;;;5088204;27;20200;-27
2022/07/21 10:22:34;;;;;;;0.50;0.50;;;23.90;60.40;;;;;;5080982;27;20110;-21
2022/07/21 10:25:00;;;;;;;0.50;0.50;;;23.90;60.40;;;;;;4705621;28;9999749;-24
2022/07/21 10:27:26;;;;;;;0.47;0.47;;;23.90;60.30;;;;;;5050717;28;20060;-19
2022/07/21 10:29:56;;;;;;;0.90;0.70;;;23.90;60.40;;;;;;5055580;28;20087;-19
2022/07/21 10:32:26;;;;;;;0.52;0.52;;;24.00;60.40;;;;;;5052132;28;20048;-19
2022/07/21 10:34:51;;;;;;;0.30;0.30;;;23.90;60.30;;;;;;5055659;28;20119;-40
2022/07/21 10:37:38;;;;;;;0.47;0.47;;;24.00;60.40;;;;;;5042187;28;20041;-19
2022/07/21 10:40:25;;;;;;;0.70;0.70;;;24.00;60.30;;;;;;5055475;28;20576;-25
2022/07/21 10:42:59;;;;;;;0.50;0.50;;;23.90;60.30;;;;;;5043294;28;20216;-26
2022/07/21 10:45:33;;;;;;;0.60;0.60;;;23.90;60.20;;;;;;5053133;28;20469;-27
2022/07/21 10:47:59;;;;;;;0.43;0.43;;;24.00;60.30;;;;;;5051564;28;20036;-25
2022/07/21 10:50:41;;;;;;;0.82;0.70;;;23.90;60.30;;;;;;5053067;28;20044;-20
2022/07/21 10:53:16;;;;;;;1.45;0.55;;;23.90;60.30;;;;;;5040422;28;20044;-23
2022/07/21 10:55:49;;;;;;;0.60;0.60;;;23.90;60.20;;;;;;5054910;28;20097;-20
2022/07/21 10:58:15;;;;;;;0.60;0.60;;;23.90;60.20;;;;;;5057430;28;20040;-19
2022/07/21 11:00:51;;;;;;;0.50;0.50;;;24.00;60.20;;;;;;5065389;28;20075;-19
2022/07/21 11:03:21;;;;;;;0.80;0.80;;;24.00;60.50;;;;;;5075228;28;20081;-29
2022/07/21 11:06:05;;;;;;;0.70;0.70;;;24.00;60.90;;;;;;5074639;27;20502;-20
2022/07/21 11:08:44;;;;;;;1.30;1.20;;;24.00;60.90;;;;;;5068756;27;20561;-22
2022/07/21 11:11:14;;;;;;;0.93;0.93;;;24.00;61.40;;;;;;5073921;27;20521;-19
2022/07/21 11:13:58;;;;;;;1.00;1.00;;;24.00;60.80;;;;;;5072503;28;20517;-19
2022/07/21 11:16:43;;;;;;;0.98;0.90;;;24.00;60.60;;;;;;5075513;27;20036;-23
2022/07/21 11:19:39;;;;;;;1.02;1.02;;;24.00;60.90;;;;;;5077372;28;20098;-30
2022/07/21 11:22:22;;;;;;;1.15;1.15;;;24.00;61.60;;;;;;5075404;28;20605;-19
2022/07/21 11:24:58;;;;;;;1.00;1.00;;;24.00;61.30;;;;;;5070987;27;20044;-19
2022/07/21 11:27:26;;;;;;;1.40;1.30;;;24.10;61.30;;;;;;5072895;27;20047;-23
2022/07/21 11:29:53;;;;;;;1.05;1.00;;;24.10;61.30;;;;;;5077694;28;20024;-38
2022/07/21 11:32:19;;;;;;;1.00;0.90;;;24.10;61.10;;;;;;5075365;27;20044;-19
2022/07/21 11:34:46;;;;;;;0.80;0.80;;;24.10;61.00;;;;;;5078436;27;20101;-22
2022/07/21 11:37:14;;;;;;;0.90;0.90;;;24.10;61.30;;;;;;5076197;27;20472;-20
2022/07/21 11:39:39;;;;;;;0.90;0.90;;;24.20;60.90;;;;;;5073091;27;20414;-19
2022/07/21 11:42:07;;;;;;;1.70;0.77;;;24.10;60.90;;;;;;5078531;28;20491;-20
2022/07/21 11:44:33;;;;;;;1.00;1.00;;;24.10;61.10;;;;;;5076570;27;20036;-30
2022/07/21 11:47:00;;;;;;;0.88;0.88;;;24.10;61.00;;;;;;5082414;27;20093;-33
2022/07/21 11:49:25;;;;;;;3.22;0.90;;;24.10;60.90;;;;;;5080520;28;20032;-24
2022/07/21 11:52:02;;;;;;;0.85;0.85;;;24.10;60.90;;;;;;5085807;27;20059;-21
2022/07/21 11:54:29;;;;;;;0.95;0.95;;;24.10;60.90;;;;;;5081825;27;20097;-22
2022/07/21 11:56:56;;;;;;;1.08;1.08;;;24.10;60.80;;;;;;5084054;27;20395;-39
2022/07/21 11:59:22;;;;;;;2.58;0.90;;;24.20;60.80;;;;;;5083483;27;20127;-19
2022/07/21 12:01:52;;;;;;;1.42;1.02;;;24.10;60.80;;;;;;5082178;28;20044;-19
2022/07/21 12:04:33;;;;;;;0.70;0.70;;;24.10;60.70;;;;;;5085816;27;20119;-19
2022/07/21 12:06:59;;;;;;;1.10;1.10;;;24.10;60.70;;;;;;5085182;27;20135;-18
2022/07/21 12:09:25;;;;;;;1.08;1.08;;;24.10;60.60;;;;;;5080819;28;20115;-19
2022/07/21 12:11:50;;;;;;;0.73;0.73;;;24.10;60.70;;;;;;5082154;28;20040;-19
2022/07/21 12:14:16;;;;;;;1.13;1.10;;;24.20;60.70;;;;;;5083155;27;20504;-20
2022/07/21 12:16:49;;;;;;;2.05;1.02;;;24.10;61.40;;;;;;5081451;28;20083;-21
2022/07/21 12:19:15;;;;;;;0.90;0.90;;;24.20;60.70;;;;;;5086872;27;20044;-19
2022/07/21 12:21:45;;;;;;;0.88;0.88;;;24.20;60.60;;;;;;5087637;28;20048;-23
2022/07/21 12:24:11;;;;;;;1.05;0.85;;;24.20;60.70;;;;;;5087395;27;20483;-20
2022/07/21 12:26:36;;;;;;;0.70;0.70;;;24.20;60.70;;;;;;5087792;27;20530;-20
2022/07/21 12:29:02;;;;;;;0.80;0.80;;;24.20;60.50;;;;;;5088680;27;20035;-27
2022/07/21 12:31:27;;;;;;;1.00;1.00;;;24.20;60.50;;;;;;5088851;27;20040;-19
2022/07/21 12:33:58;;;;;;;0.70;0.70;;;24.20;60.40;;;;;;5088731;27;20044;-26
2022/07/21 12:36:23;;;;;;;0.80;0.80;;;24.20;60.40;;;;;;5087998;28;20548;-19
2022/07/21 12:38:50;;;;;;;0.70;0.70;;;24.20;60.50;;;;;;5070000;27;20486;-19
2022/07/21 12:41:20;;;;;;;0.77;0.77;;;24.20;60.40;;;;;;5087612;27;20063;-20
2022/07/21 12:43:55;;;;;;;0.68;0.68;;;24.20;60.30;;;;;;5087223;27;20058;-26
2022/07/21 12:46:26;;;;;;;0.60;0.60;;;24.20;60.30;;;;;;5089602;27;20050;-21
2022/07/21 12:48:52;;;;;;;0.80;0.80;;;24.20;60.20;;;;;;5086927;28;20036;-24
2022/07/21 12:51:18;;;;;;;0.75;0.68;;;24.20;60.20;;;;;;5069339;28;20043;-20